createdAt,value
2019-06-15T00:00:05.795Z,23.40
2019-06-15T00:02:34.394Z,23.70
2019-06-15T00:05:02.951Z,23.90
2019-06-15T00:07:31.595Z,24.10
2019-06-15T00:10:00.193Z,24.20
2019-06-15T00:12:28.777Z,24.40
2019-06-15T00:14:57.336Z,24.50
2019-06-15T00:17:25.950Z,24.50
2019-06-15T00:19:54.582Z,24.60
2019-06-15T00:22:23.263Z,24.70
2019-06-15T00:24:51.937Z,24.70
2019-06-15T00:27:20.500Z,24.80
2019-06-15T00:29:50.956Z,24.80
2019-06-15T00:32:19.577Z,24.80
2019-06-15T00:34:48.125Z,24.90
2019-06-15T00:37:16.694Z,24.90
2019-06-15T00:39:45.358Z,24.90
2019-06-15T00:42:13.962Z,25.00
2019-06-15T00:44:42.778Z,24.90
2019-06-15T00:47:11.392Z,24.90
2019-06-15T00:49:39.962Z,24.90
2019-06-15T00:52:08.534Z,25.00
2019-06-15T00:54:49.685Z,24.90
2019-06-15T00:57:07.372Z,24.90
2019-06-15T00:59:35.929Z,25.00
2019-06-15T01:02:04.597Z,25.00
2019-06-15T01:04:33.152Z,25.00
2019-06-15T01:07:01.723Z,25.00
2019-06-15T01:09:30.317Z,25.00
2019-06-15T01:11:58.877Z,25.00
2019-06-15T01:14:27.434Z,24.90
2019-06-15T01:16:56.085Z,24.90
2019-06-15T01:19:32.145Z,24.90
2019-06-15T01:22:00.890Z,24.90
2019-06-15T01:24:29.475Z,24.80
2019-06-15T01:26:58.104Z,24.80
2019-06-15T01:29:26.686Z,24.80
2019-06-15T01:31:55.253Z,24.80
2019-06-15T01:34:24.085Z,24.80
2019-06-15T01:36:52.806Z,24.80
2019-06-15T01:39:21.326Z,24.80
2019-06-15T01:41:49.889Z,24.80
2019-06-15T01:44:18.489Z,24.80
2019-06-15T01:46:47.106Z,24.80
2019-06-15T01:49:15.715Z,24.80
2019-06-15T01:51:44.505Z,24.80
2019-06-15T01:54:13.087Z,24.70
2019-06-15T01:56:41.791Z,24.70
2019-06-15T01:59:10.367Z,24.70
2019-06-15T02:01:38.944Z,24.60
2019-06-15T02:04:07.572Z,24.70
2019-06-15T02:06:36.251Z,24.70
2019-06-15T02:09:08.222Z,24.70
2019-06-15T02:11:36.918Z,24.70
2019-06-15T02:14:05.948Z,24.70
2019-06-15T02:16:34.534Z,24.70
2019-06-15T02:19:03.218Z,24.70
2019-06-15T02:21:31.908Z,24.70
2019-06-15T02:24:00.466Z,24.70
2019-06-15T02:26:29.320Z,24.70
2019-06-15T02:28:57.989Z,24.70
2019-06-15T02:31:26.562Z,24.60
2019-06-15T02:33:55.217Z,24.60
2019-06-15T02:36:23.788Z,24.60
2019-06-15T02:38:52.426Z,24.60
2019-06-15T02:41:21.215Z,24.60
2019-06-15T02:43:49.883Z,24.60
2019-06-15T02:46:18.584Z,24.60
2019-06-15T02:48:47.227Z,24.60
2019-06-15T02:51:15.956Z,24.60
2019-06-15T02:53:45.533Z,24.60
2019-06-15T02:56:14.375Z,24.60
2019-06-15T02:58:43.075Z,24.60
2019-06-15T03:01:11.696Z,24.60
2019-06-15T03:03:40.287Z,24.60
2019-06-15T03:06:08.922Z,24.60
2019-06-15T03:08:38.031Z,24.50
2019-06-15T03:11:06.703Z,24.50
2019-06-15T03:13:36.159Z,24.60
2019-06-15T03:16:06.091Z,24.60
2019-06-15T03:18:34.725Z,24.60
2019-06-15T03:21:03.445Z,24.50
2019-06-15T03:23:32.065Z,24.60
2019-06-15T03:26:05.474Z,24.50
2019-06-15T03:28:30.975Z,24.50
2019-06-15T03:30:59.554Z,24.50
2019-06-15T03:33:28.354Z,24.60
2019-06-15T03:35:56.988Z,24.60
2019-06-15T03:38:25.657Z,24.60
2019-06-15T03:40:54.252Z,24.50
2019-06-15T03:43:22.815Z,24.60
2019-06-15T03:45:51.376Z,24.50
2019-06-15T03:48:19.975Z,24.50
2019-06-15T03:50:48.535Z,24.50
2019-06-15T03:53:17.112Z,24.50
2019-06-15T03:55:46.577Z,24.50
2019-06-15T03:58:15.144Z,24.50
2019-06-15T04:00:58.908Z,24.50
2019-06-15T04:03:27.526Z,24.50
2019-06-15T04:05:56.105Z,24.50
2019-06-15T04:08:24.692Z,24.50
2019-06-15T04:10:53.270Z,24.50
2019-06-15T04:13:21.820Z,24.50
2019-06-15T04:15:50.436Z,24.50
2019-06-15T04:18:19.092Z,24.50
2019-06-15T04:20:47.686Z,24.60
2019-06-15T04:23:16.318Z,24.50
2019-06-15T04:25:44.892Z,24.60
2019-06-15T04:28:13.544Z,24.60
2019-06-15T04:30:43.438Z,24.60
2019-06-15T04:33:12.037Z,24.60
2019-06-15T04:35:40.683Z,24.60
2019-06-15T04:38:09.244Z,24.60
2019-06-15T04:40:37.836Z,24.60
2019-06-15T04:43:06.380Z,24.50
2019-06-15T04:45:34.973Z,24.50
2019-06-15T04:48:03.592Z,24.60
2019-06-15T04:50:32.150Z,24.50
2019-06-15T04:53:00.725Z,24.50
2019-06-15T04:55:29.283Z,24.50
2019-06-15T04:57:58.785Z,24.30
2019-06-15T05:00:27.508Z,24.30
2019-06-15T05:02:56.246Z,24.20
2019-06-15T05:05:24.823Z,24.20
2019-06-15T05:07:53.821Z,24.10
2019-06-15T05:10:22.403Z,24.00
2019-06-15T05:12:50.987Z,24.00
2019-06-15T05:15:19.871Z,24.00
2019-06-15T05:17:54.297Z,23.90
2019-06-15T05:20:22.921Z,23.90
2019-06-15T05:22:51.537Z,23.50
2019-06-15T05:25:20.249Z,23.30
2019-06-15T05:27:48.916Z,23.10
2019-06-15T05:30:17.815Z,23.20
2019-06-15T05:32:46.504Z,23.40
2019-06-15T05:35:15.392Z,23.60
2019-06-15T05:37:43.961Z,23.80
2019-06-15T05:40:12.785Z,23.90
2019-06-15T05:42:41.362Z,24.10
2019-06-15T05:45:10.684Z,24.20
2019-06-15T05:47:43.222Z,24.40
2019-06-15T05:50:13.536Z,24.40
2019-06-15T05:52:42.285Z,24.40
2019-06-15T05:55:11.085Z,24.50
2019-06-15T05:57:39.663Z,24.50
2019-06-15T06:00:10.398Z,24.60
2019-06-15T06:02:38.961Z,24.60
2019-06-15T06:05:07.972Z,24.50
2019-06-15T06:07:36.537Z,24.20
2019-06-15T06:10:09.915Z,23.80
2019-06-15T06:12:37.592Z,23.50
2019-06-15T06:15:09.897Z,23.40
2019-06-15T06:17:38.512Z,23.20
2019-06-15T06:20:08.858Z,23.20
2019-06-15T06:22:37.410Z,23.00
2019-06-15T06:25:08.274Z,23.00
2019-06-15T06:27:37.092Z,23.00
2019-06-15T06:30:09.847Z,23.10
2019-06-15T06:32:38.465Z,23.20
2019-06-15T06:35:08.419Z,23.30
2019-06-15T06:37:37.020Z,23.40
2019-06-15T06:40:08.696Z,23.20
2019-06-15T06:42:37.408Z,23.10
2019-06-15T06:45:08.884Z,22.90
2019-06-15T06:47:37.462Z,22.70
2019-06-15T06:50:10.103Z,22.50
2019-06-15T06:52:38.663Z,22.40
2019-06-15T06:55:07.859Z,22.50
2019-06-15T06:57:50.767Z,22.50
2019-06-15T07:00:07.498Z,22.50
2019-06-15T07:02:36.939Z,22.50
2019-06-15T07:05:06.983Z,22.60
2019-06-15T07:07:35.691Z,22.70
2019-06-15T07:10:07.247Z,22.70
2019-06-15T07:12:35.969Z,22.60
2019-06-15T07:15:06.153Z,22.50
2019-06-15T07:17:34.763Z,22.50
2019-06-15T07:20:05.328Z,22.40
2019-06-15T07:22:33.929Z,22.50
2019-06-15T07:25:02.559Z,22.60
2019-06-15T07:27:31.143Z,22.70
2019-06-15T07:29:59.695Z,22.80
2019-06-15T07:32:28.357Z,22.70
2019-06-15T07:34:56.968Z,22.50
2019-06-15T07:37:25.505Z,22.40
2019-06-15T07:39:54.062Z,22.30
2019-06-15T07:42:22.656Z,22.40
2019-06-15T07:44:51.283Z,22.50
2019-06-15T07:47:19.885Z,22.50
2019-06-15T07:49:48.623Z,22.60
2019-06-15T07:52:17.176Z,22.70
2019-06-15T07:54:45.763Z,22.90
2019-06-15T07:57:14.354Z,22.90
2019-06-15T07:59:43.051Z,23.00
2019-06-15T08:02:11.674Z,23.00
2019-06-15T08:04:41.451Z,23.10
2019-06-15T08:07:10.081Z,23.10
2019-06-15T08:09:38.654Z,23.20
2019-06-15T08:12:07.397Z,23.20
2019-06-15T08:14:36.058Z,23.10
2019-06-15T08:17:04.693Z,23.00
2019-06-15T08:19:33.272Z,22.90
2019-06-15T08:22:01.851Z,22.80
2019-06-15T08:24:30.406Z,22.70
2019-06-15T08:26:59.067Z,22.70
2019-06-15T08:29:27.682Z,22.70
2019-06-15T08:31:56.297Z,22.70
2019-06-15T08:34:25.266Z,22.80
2019-06-15T08:36:53.915Z,22.70
2019-06-15T08:39:22.807Z,22.70
2019-06-15T08:41:51.379Z,22.70
2019-06-15T08:44:19.959Z,22.60
2019-06-15T08:46:48.564Z,22.70
2019-06-15T08:49:17.187Z,22.80
2019-06-15T08:51:46.173Z,22.90
2019-06-15T08:54:14.761Z,22.90
2019-06-15T08:56:43.332Z,22.90
2019-06-15T08:59:11.880Z,23.10
2019-06-15T09:01:40.483Z,23.20
2019-06-15T09:04:09.050Z,23.20
2019-06-15T09:06:38.597Z,23.10
2019-06-15T09:09:08.614Z,23.10
2019-06-15T09:11:37.184Z,23.10
2019-06-15T09:14:06.619Z,23.10
2019-06-15T09:16:35.177Z,23.10
2019-06-15T09:19:03.755Z,23.20
2019-06-15T09:21:32.353Z,23.30
2019-06-15T09:24:00.934Z,23.40
2019-06-15T09:26:29.592Z,23.40
2019-06-15T09:29:10.354Z,23.40
2019-06-15T09:31:28.419Z,23.40
2019-06-15T09:33:57.013Z,23.40
2019-06-15T09:36:25.577Z,23.20
2019-06-15T09:38:54.924Z,23.10
2019-06-15T09:41:23.549Z,23.10
2019-06-15T09:43:52.176Z,23.20
2019-06-15T09:46:21.129Z,23.20
2019-06-15T09:48:49.651Z,23.40
2019-06-15T09:51:18.278Z,23.40
2019-06-15T09:53:46.864Z,23.30
2019-06-15T09:56:15.508Z,23.30
2019-06-15T09:58:44.088Z,23.50
2019-06-15T10:01:12.704Z,23.50
2019-06-15T10:03:41.284Z,23.50
2019-06-15T10:06:11.666Z,23.50
2019-06-15T10:08:40.878Z,23.50
2019-06-15T10:11:18.172Z,23.60
2019-06-15T10:13:46.735Z,23.70
2019-06-15T10:16:15.410Z,23.80
2019-06-15T10:18:43.985Z,23.70
2019-06-15T10:21:12.546Z,23.70
2019-06-15T10:23:41.156Z,23.70
2019-06-15T10:26:09.788Z,23.50
2019-06-15T10:28:38.678Z,23.40
2019-06-15T10:31:07.345Z,23.40
2019-06-15T10:33:35.897Z,23.30
2019-06-15T10:36:04.576Z,23.20
2019-06-15T10:38:33.127Z,23.20
2019-06-15T10:41:01.689Z,23.20
2019-06-15T10:43:30.285Z,23.30
2019-06-15T10:45:58.992Z,23.30
2019-06-15T10:48:27.616Z,23.30
2019-06-15T10:50:56.212Z,23.30
2019-06-15T10:53:24.787Z,23.50
2019-06-15T10:55:53.390Z,23.60
2019-06-15T10:58:21.944Z,23.50
2019-06-15T11:00:50.585Z,23.60
2019-06-15T11:03:19.315Z,23.80
2019-06-15T11:05:47.886Z,23.90
2019-06-15T11:08:16.575Z,24.00
2019-06-15T11:10:54.907Z,24.00
2019-06-15T11:13:23.640Z,23.90
2019-06-15T11:15:52.528Z,23.80
2019-06-15T11:18:28.532Z,23.60
2019-06-15T11:20:58.933Z,23.70
2019-06-15T11:23:27.328Z,23.80
2019-06-15T11:25:55.948Z,23.80
2019-06-15T11:28:24.598Z,23.90
2019-06-15T11:30:53.160Z,23.90
2019-06-15T11:33:21.755Z,23.80
2019-06-15T11:35:50.503Z,23.80
2019-06-15T11:38:19.231Z,23.80
2019-06-15T11:40:47.943Z,23.60
2019-06-15T11:43:16.918Z,23.30
2019-06-15T11:45:46.739Z,23.20
2019-06-15T11:48:15.414Z,23.20
2019-06-15T11:50:44.098Z,23.30
2019-06-15T11:53:13.087Z,23.40
2019-06-15T11:55:41.696Z,23.50
2019-06-15T11:58:10.457Z,23.50
2019-06-15T12:00:42.243Z,23.60
2019-06-15T12:03:11.274Z,23.70
2019-06-15T12:05:39.834Z,23.80
2019-06-15T12:08:08.488Z,23.80
2019-06-15T12:10:37.129Z,23.60
2019-06-15T12:13:05.703Z,23.40
2019-06-15T12:15:34.401Z,23.30
2019-06-15T12:18:03.132Z,23.40
2019-06-15T12:20:31.756Z,23.30
2019-06-15T12:23:00.471Z,23.20
2019-06-15T12:25:29.138Z,23.10
2019-06-15T12:27:58.239Z,23.10
2019-06-15T12:30:47.067Z,23.20
2019-06-15T12:33:11.578Z,23.30
2019-06-15T12:35:40.187Z,23.30
2019-06-15T12:38:09.022Z,23.20
2019-06-15T12:40:37.854Z,23.20
2019-06-15T12:43:06.360Z,23.20
2019-06-15T12:45:35.769Z,23.20
2019-06-15T12:48:04.494Z,23.20
2019-06-15T12:50:33.062Z,23.30
2019-06-15T12:53:01.669Z,23.30
2019-06-15T12:55:30.923Z,23.50
2019-06-15T12:58:00.064Z,23.50
2019-06-15T13:00:38.895Z,23.60
2019-06-15T13:03:07.613Z,23.70
2019-06-15T13:05:36.240Z,23.90
2019-06-15T13:08:05.057Z,23.90
2019-06-15T13:10:33.703Z,23.80
2019-06-15T13:13:02.265Z,23.80
2019-06-15T13:15:30.937Z,23.80
2019-06-15T13:18:00.387Z,23.90
2019-06-15T13:20:29.988Z,23.90
2019-06-15T13:22:59.012Z,24.00
2019-06-15T13:25:27.822Z,24.10
2019-06-15T13:27:56.711Z,24.10
2019-06-15T13:30:25.354Z,24.10
2019-06-15T13:32:53.911Z,24.10
2019-06-15T13:35:22.534Z,24.20
2019-06-15T13:37:51.139Z,24.40
2019-06-15T13:40:19.771Z,24.50
2019-06-15T13:42:48.363Z,24.40
2019-06-15T13:45:18.573Z,24.30
2019-06-15T13:47:47.124Z,24.50
2019-06-15T13:50:15.807Z,24.50
2019-06-15T13:52:44.571Z,24.50
2019-06-15T13:55:13.509Z,24.40
2019-06-15T13:57:42.124Z,24.50
2019-06-15T14:00:11.870Z,24.50
2019-06-15T14:02:40.435Z,24.60
2019-06-15T14:05:09.123Z,24.80
2019-06-15T14:07:37.731Z,24.80
2019-06-15T14:10:06.811Z,25.00
2019-06-15T14:12:35.574Z,25.10
2019-06-15T14:15:07.078Z,25.00
2019-06-15T14:17:39.700Z,25.00
2019-06-15T14:20:07.353Z,25.10
2019-06-15T14:22:36.165Z,25.00
2019-06-15T14:25:07.752Z,24.90
2019-06-15T14:27:36.699Z,24.90
2019-06-15T14:30:09.378Z,24.80
2019-06-15T14:32:38.226Z,25.00
2019-06-15T14:35:10.490Z,25.20
2019-06-15T14:37:39.070Z,25.50
2019-06-15T14:40:08.196Z,25.60
2019-06-15T14:42:36.821Z,25.50
2019-06-15T14:45:07.523Z,25.40
2019-06-15T14:47:36.238Z,25.40
2019-06-15T14:50:06.253Z,25.20
2019-06-15T14:52:34.856Z,25.20
2019-06-15T14:55:03.554Z,25.40
2019-06-15T14:57:32.108Z,25.60
2019-06-15T15:00:05.131Z,25.80
2019-06-15T15:02:31.106Z,25.90
2019-06-15T15:04:59.648Z,25.90
2019-06-15T15:07:28.296Z,26.10
2019-06-15T15:09:56.940Z,26.10
2019-06-15T15:12:26.583Z,26.00
2019-06-15T15:14:56.619Z,26.00
2019-06-15T15:17:26.826Z,26.00
2019-06-15T15:19:57.388Z,26.10
2019-06-15T15:22:29.490Z,26.40
2019-06-15T15:24:58.186Z,26.60
2019-06-15T15:27:27.305Z,26.50
2019-06-15T15:29:57.003Z,26.70
2019-06-15T15:32:31.323Z,27.00
2019-06-15T15:34:56.203Z,27.20
2019-06-15T15:37:26.894Z,27.50
2019-06-15T15:39:56.548Z,27.70
2019-06-15T15:42:26.940Z,27.80
2019-06-15T15:44:56.491Z,27.60
2019-06-15T15:47:27.562Z,27.50
2019-06-15T15:49:57.578Z,27.50
2019-06-15T15:52:27.077Z,27.40
2019-06-15T15:54:56.501Z,27.60
2019-06-15T15:57:26.663Z,27.80
2019-06-15T15:59:56.319Z,28.00
2019-06-15T16:02:35.702Z,27.80
2019-06-15T16:04:57.508Z,27.60
2019-06-15T16:07:27.709Z,27.50
2019-06-15T16:09:56.117Z,27.70
2019-06-15T16:12:24.674Z,27.70
2019-06-15T16:14:56.544Z,27.60
2019-06-15T16:17:26.856Z,27.60
2019-06-15T16:19:56.437Z,27.70
2019-06-15T16:22:26.350Z,28.20
2019-06-15T16:24:58.384Z,28.20
2019-06-15T16:27:27.271Z,27.70
2019-06-15T16:29:58.619Z,27.30
2019-06-15T16:32:27.136Z,26.90
2019-06-15T16:34:55.922Z,26.80
2019-06-15T16:37:26.016Z,26.60
2019-06-15T16:39:54.658Z,26.80
2019-06-15T16:42:26.754Z,27.20
2019-06-15T16:44:56.155Z,27.90
2019-06-15T16:47:27.184Z,28.20
2019-06-15T16:49:56.708Z,28.70
2019-06-15T16:52:26.938Z,29.20
2019-06-15T16:54:59.311Z,29.50
2019-06-15T16:57:27.872Z,29.70
2019-06-15T16:59:56.609Z,29.40
2019-06-15T17:02:26.102Z,28.90
2019-06-15T17:04:56.861Z,28.40
2019-06-15T17:07:26.281Z,28.00
2019-06-15T17:09:56.860Z,27.90
2019-06-15T17:12:26.100Z,28.20
2019-06-15T17:14:54.724Z,28.50
2019-06-15T17:17:23.313Z,28.70
2019-06-15T17:19:54.120Z,29.00
2019-06-15T17:22:22.752Z,29.50
2019-06-15T17:24:51.610Z,29.80
2019-06-15T17:27:20.292Z,30.00
2019-06-15T17:29:48.833Z,30.30
2019-06-15T17:32:17.486Z,30.70
2019-06-15T17:34:46.892Z,31.10
2019-06-15T17:37:17.233Z,31.00
2019-06-15T17:39:46.650Z,30.60
2019-06-15T17:42:16.390Z,30.40
2019-06-15T17:44:46.150Z,30.30
2019-06-15T17:47:16.974Z,30.50
2019-06-15T17:49:46.887Z,30.70
2019-06-15T17:52:16.843Z,31.10
2019-06-15T17:54:46.650Z,31.20
2019-06-15T17:57:15.411Z,31.40
2019-06-15T17:59:46.867Z,31.40
2019-06-15T18:02:16.944Z,31.40
2019-06-15T18:04:47.357Z,31.30
2019-06-15T18:07:16.953Z,31.10
2019-06-15T18:09:46.592Z,30.40
2019-06-15T18:12:16.756Z,29.90
2019-06-15T18:14:46.390Z,29.50
2019-06-15T18:17:17.181Z,29.10
2019-06-15T18:19:47.133Z,28.80
2019-06-15T18:22:21.596Z,28.60
2019-06-15T18:24:50.806Z,28.60
2019-06-15T18:27:21.581Z,28.30
2019-06-15T18:29:50.113Z,28.30
2019-06-15T18:32:18.684Z,28.10
2019-06-15T18:34:47.343Z,27.80
2019-06-15T18:37:17.293Z,27.70
2019-06-15T18:39:47.713Z,27.60
2019-06-15T18:42:16.600Z,27.60
2019-06-15T18:44:47.851Z,27.50
2019-06-15T18:47:17.046Z,27.50
2019-06-15T18:49:47.304Z,27.40
2019-06-15T18:52:17.594Z,27.10
2019-06-15T18:54:47.788Z,26.90
2019-06-15T18:57:17.636Z,26.80
2019-06-15T18:59:47.885Z,26.80
2019-06-15T19:02:16.471Z,26.70
2019-06-15T19:04:45.168Z,26.60
2019-06-15T19:07:16.054Z,26.50
2019-06-15T19:09:46.448Z,26.30
2019-06-15T19:12:16.945Z,26.10
2019-06-15T19:14:46.929Z,25.90
2019-06-15T19:17:16.536Z,25.80
2019-06-15T19:19:46.796Z,25.70
2019-06-15T19:22:17.169Z,25.70
2019-06-15T19:24:50.277Z,25.70
2019-06-15T19:27:17.062Z,25.70
2019-06-15T19:29:46.549Z,25.70
2019-06-15T19:32:17.283Z,25.70
2019-06-15T19:34:50.467Z,25.60
2019-06-15T19:37:16.792Z,25.60
2019-06-15T19:39:47.848Z,25.70
2019-06-15T19:42:25.899Z,25.60
2019-06-15T19:44:56.171Z,25.70
2019-06-15T19:47:26.520Z,25.60
2019-06-15T19:49:56.819Z,25.50
2019-06-15T19:52:27.213Z,25.50
2019-06-15T19:54:55.827Z,25.30
2019-06-15T19:57:24.391Z,25.10
2019-06-15T19:59:53.382Z,25.00
2019-06-15T20:02:22.455Z,24.80
2019-06-15T20:05:00.262Z,24.80
2019-06-15T20:07:21.213Z,24.70
2019-06-15T20:09:49.756Z,24.70
2019-06-15T20:12:21.862Z,24.70
2019-06-15T20:14:48.561Z,24.80
2019-06-15T20:17:17.594Z,24.80
2019-06-15T20:19:46.466Z,24.90
2019-06-15T20:22:17.636Z,25.00
2019-06-15T20:24:47.477Z,25.10
2019-06-15T20:27:16.428Z,25.10
2019-06-15T20:29:47.545Z,25.10
2019-06-15T20:32:17.367Z,25.00
2019-06-15T20:34:46.409Z,25.00
2019-06-15T20:37:16.893Z,24.80
2019-06-15T20:39:46.736Z,24.80
2019-06-15T20:42:16.443Z,24.70
2019-06-15T20:44:46.243Z,24.70
2019-06-15T20:47:15.165Z,24.80
2019-06-15T20:49:46.299Z,24.70
2019-06-15T20:52:16.542Z,24.70
2019-06-15T20:54:46.442Z,24.60
2019-06-15T20:57:16.528Z,24.50
2019-06-15T20:59:47.296Z,24.70
2019-06-15T21:02:16.120Z,24.70
2019-06-15T21:04:44.744Z,24.50
2019-06-15T21:07:16.020Z,24.40
2019-06-15T21:09:43.592Z,24.40
2019-06-15T21:12:12.195Z,24.40
2019-06-15T21:14:40.763Z,24.40
2019-06-15T21:17:09.323Z,24.30
2019-06-15T21:19:37.944Z,24.10
2019-06-15T21:22:06.610Z,24.00
2019-06-15T21:24:37.384Z,23.90
2019-06-15T21:27:06.433Z,23.70
2019-06-15T21:29:36.962Z,23.50
2019-06-15T21:32:05.905Z,23.30
2019-06-15T21:34:36.230Z,23.30
2019-06-15T21:37:06.588Z,23.30
2019-06-15T21:39:36.499Z,23.50
2019-06-15T21:42:05.552Z,23.40
2019-06-15T21:44:36.082Z,23.40
2019-06-15T21:47:06.736Z,23.50
2019-06-15T21:49:35.870Z,23.60
2019-06-15T21:52:07.175Z,23.70
2019-06-15T21:54:36.011Z,23.70
2019-06-15T21:57:07.098Z,23.40
2019-06-15T21:59:37.032Z,23.30
2019-06-15T22:02:06.929Z,23.20
2019-06-15T22:04:36.827Z,23.10
2019-06-15T22:07:06.477Z,23.20
2019-06-15T22:09:36.353Z,23.40
2019-06-15T22:12:06.874Z,23.40
2019-06-15T22:14:35.525Z,23.40
2019-06-15T22:17:06.587Z,23.30
2019-06-15T22:19:36.710Z,23.20
2019-06-15T22:22:06.809Z,23.20
2019-06-15T22:24:36.302Z,22.80
2019-06-15T22:27:06.626Z,22.60
2019-06-15T22:29:36.473Z,22.60
2019-06-15T22:32:06.916Z,22.60
2019-06-15T22:34:36.429Z,22.50
2019-06-15T22:37:06.873Z,22.50
2019-06-15T22:39:37.117Z,22.50
2019-06-15T22:42:07.009Z,22.50
2019-06-15T22:44:37.278Z,22.40
2019-06-15T22:47:06.924Z,22.30
2019-06-15T22:49:36.032Z,22.20
2019-06-15T22:52:06.520Z,22.10
2019-06-15T22:54:37.350Z,22.10
2019-06-15T22:57:06.189Z,22.00
2019-06-15T22:59:34.900Z,22.00
2019-06-15T23:02:03.494Z,21.90
2019-06-15T23:04:32.024Z,21.80
2019-06-15T23:07:00.689Z,21.60
2019-06-15T23:09:29.261Z,21.30
2019-06-15T23:11:57.823Z,21.20
2019-06-15T23:14:26.407Z,21.10
2019-06-15T23:16:56.764Z,21.20
2019-06-15T23:19:26.192Z,21.20
2019-06-15T23:21:56.992Z,21.20
2019-06-15T23:24:27.265Z,21.20
2019-06-15T23:26:57.067Z,21.20
2019-06-15T23:29:27.079Z,21.30
2019-06-15T23:31:57.198Z,21.60
2019-06-15T23:34:27.056Z,21.90
2019-06-15T23:37:00.741Z,22.20
2019-06-15T23:39:27.783Z,22.60
2019-06-15T23:41:56.400Z,22.80
2019-06-15T23:44:27.051Z,23.00
2019-06-15T23:46:55.250Z,23.20
2019-06-15T23:49:23.814Z,23.40
2019-06-15T23:51:52.733Z,23.60
2019-06-15T23:54:21.317Z,23.70
2019-06-15T23:56:49.881Z,23.70
2019-06-15T23:59:18.668Z,23.80
